Pagina principale
METAR-TAF:

METAR-TAF

Aeroporti :

Aeroporto Internazionale di Teheran-Mehrabad

Teheran, Iran

latitudine: 35-41N, longitudine: 051-21E, altezza: 1204 m

Osservazione

Il bollettino è stato emesso 18 minuti fa, alle 18:00 UTC
Vento calmo
Temperature 6°C
Umidità 70%
Pressione 1022 hPa
Visibilità 10 km o più
nessuna nube inferiore a 1500 m e nessun cumulonembo

METAR: OIII 211800Z 00000KT CAVOK 06/01 Q1022 A3018 NOSIG

Ora: 21:48 (18:18 UTC)

Previsione

Il bollettino è stato emesso 48 minuti fa, alle 17:30 UTC
Previsione valida dal 21 alle 18 UTC al 22 alle 24 UTC
Vento 6 kt da ovest/nord-ovest
Visibilità: 8000 m
Evoluzione graduale
dal 22 alle 00 UTC al 22 alle 02 UTC
Visibilità: 4000 m
foschia
Evoluzione graduale
dal 22 alle 04 UTC al 22 alle 06 UTC
Visibilità: 7000 m
Poco nuvoloso ad un'altezza di 4000 ft

TAF: OIII 211730Z 2118/2224 29006KT 8000 NSC BECMG 2200/2202 4000 BR BECMG 2204/2206 7000 FEW040

Osservazioni e previsioni meteorologiche di più di 4000 aeroporti (messaggi METAR e TAF).

Le stazioni disponibili sono rappresentate dai dischi gialli e rossi sulla carta.

Puntare il mouse per vedere il nome della stazione.

Clicca sopra per visualizzare le osservazioni e previsioni meteorologiche.

Per cambiare la mappa : fare clic sui pulsanti verdi con una croce nera per ingrandire, il pulsante verde con un trattino per diminuire, o sulla freccia verde per le mappe adiacenti.


METAR-TAF: